createdAt,value
2022-10-07T00:01:25.425Z,11.58
2022-10-07T00:03:51.979Z,11.57
2022-10-07T00:06:19.316Z,11.60
2022-10-07T00:08:52.315Z,11.53
2022-10-07T00:11:21.331Z,11.56
2022-10-07T00:13:48.671Z,11.55
2022-10-07T00:16:17.105Z,11.62
2022-10-07T00:18:44.169Z,11.60
2022-10-07T00:21:12.401Z,11.57
2022-10-07T00:23:39.706Z,11.55
2022-10-07T00:26:07.520Z,11.48
2022-10-07T00:28:34.803Z,11.50
2022-10-07T00:31:03.970Z,11.50
2022-10-07T00:33:32.063Z,11.51
2022-10-07T00:35:58.598Z,11.55
2022-10-07T00:38:25.008Z,11.61
2022-10-07T00:40:51.437Z,11.63
2022-10-07T00:43:32.317Z,11.58
2022-10-07T00:46:01.050Z,11.51
2022-10-07T00:48:30.995Z,11.54
2022-10-07T00:50:58.658Z,11.53
2022-10-07T00:53:26.039Z,11.57
2022-10-07T00:55:53.287Z,11.63
2022-10-07T00:58:19.682Z,11.63
2022-10-07T01:00:46.520Z,11.64
2022-10-07T01:03:12.889Z,11.60
2022-10-07T01:05:39.307Z,11.57
2022-10-07T01:08:05.733Z,11.52
2022-10-07T01:10:50.888Z,11.52
2022-10-07T01:13:23.133Z,11.45
2022-10-07T01:15:50.214Z,11.45
2022-10-07T01:18:22.835Z,11.44
2022-10-07T01:20:55.325Z,11.49
2022-10-07T01:23:21.708Z,11.47
2022-10-07T01:25:54.933Z,11.48
2022-10-07T01:28:29.546Z,11.44
2022-10-07T01:30:58.843Z,11.43
2022-10-07T01:33:27.753Z,11.40
2022-10-07T01:35:55.969Z,11.39
2022-10-07T01:38:23.725Z,11.44
2022-10-07T01:40:56.901Z,11.40
2022-10-07T01:43:23.568Z,11.43
2022-10-07T01:45:51.468Z,11.44
2022-10-07T01:48:18.268Z,11.39
2022-10-07T01:50:45.595Z,11.35
2022-10-07T01:53:27.392Z,11.28
2022-10-07T01:56:13.976Z,11.24
2022-10-07T01:58:54.103Z,11.24
2022-10-07T02:01:31.369Z,11.19
2022-10-07T02:04:21.986Z,11.15
2022-10-07T02:07:00.615Z,11.16
2022-10-07T02:09:33.946Z,11.17
2022-10-07T02:12:15.521Z,11.15
2022-10-07T02:14:54.733Z,11.15
2022-10-07T02:17:24.089Z,11.14
2022-10-07T02:19:56.430Z,11.05
2022-10-07T02:22:25.915Z,11.09
2022-10-07T02:24:55.269Z,11.09
2022-10-07T02:27:24.394Z,11.10
2022-10-07T02:29:54.212Z,11.09
2022-10-07T02:32:22.867Z,11.14
2022-10-07T02:34:53.303Z,11.19
2022-10-07T02:37:24.148Z,11.21
2022-10-07T02:39:51.896Z,11.18
2022-10-07T02:42:30.849Z,11.21
2022-10-07T02:45:03.709Z,11.19
2022-10-07T02:47:35.755Z,11.21
2022-10-07T02:50:04.749Z,11.15
2022-10-07T02:52:32.505Z,11.02
2022-10-07T02:55:04.296Z,10.96
2022-10-07T02:57:32.851Z,11.00
2022-10-07T03:00:01.027Z,11.15
2022-10-07T03:02:39.428Z,11.17
2022-10-07T03:05:07.085Z,10.92
2022-10-07T03:07:35.201Z,10.74
2022-10-07T03:10:04.201Z,10.71
2022-10-07T03:12:30.787Z,10.69
2022-10-07T03:14:57.568Z,10.75
2022-10-07T03:17:24.202Z,10.68
2022-10-07T03:19:50.604Z,10.67
2022-10-07T03:22:17.366Z,10.56
2022-10-07T03:24:44.029Z,10.57
2022-10-07T03:27:10.380Z,10.62
2022-10-07T03:29:38.944Z,10.69
2022-10-07T03:32:06.690Z,10.60
2022-10-07T03:34:33.713Z,10.53
2022-10-07T03:37:00.818Z,10.59
2022-10-07T03:39:28.191Z,10.64
2022-10-07T03:41:54.660Z,10.46
2022-10-07T03:44:22.421Z,10.46
2022-10-07T03:46:50.613Z,10.39
2022-10-07T03:49:20.066Z,10.48
2022-10-07T03:51:46.431Z,10.56
2022-10-07T03:54:12.957Z,10.40
2022-10-07T03:56:39.998Z,10.41
2022-10-07T03:59:06.403Z,10.56
2022-10-07T04:01:32.905Z,10.55
2022-10-07T04:04:00.904Z,10.49
2022-10-07T04:06:31.135Z,10.44
2022-10-07T04:09:00.129Z,10.47
2022-10-07T04:11:26.703Z,10.50
2022-10-07T04:14:00.652Z,10.34
2022-10-07T04:16:28.086Z,10.38
2022-10-07T04:18:56.078Z,10.35
2022-10-07T04:21:23.836Z,10.31
2022-10-07T04:23:50.239Z,10.39
2022-10-07T04:26:16.761Z,10.43
2022-10-07T04:28:49.114Z,10.43
2022-10-07T04:31:18.719Z,10.46
2022-10-07T04:33:48.455Z,10.47
2022-10-07T04:36:20.716Z,10.45
2022-10-07T04:38:56.193Z,10.51
2022-10-07T04:41:26.652Z,10.25
2022-10-07T04:43:56.843Z,10.11
2022-10-07T04:46:25.628Z,10.24
2022-10-07T04:48:59.733Z,10.17
2022-10-07T04:51:27.585Z,9.93
2022-10-07T04:53:57.484Z,10.05
2022-10-07T04:56:48.362Z,10.06
2022-10-07T04:59:14.830Z,10.04
2022-10-07T05:01:42.755Z,10.08
2022-10-07T05:04:10.783Z,10.13
2022-10-07T05:06:37.555Z,10.18
2022-10-07T05:09:04.245Z,10.18
2022-10-07T05:11:34.070Z,10.21
2022-10-07T05:14:07.356Z,10.20
2022-10-07T05:16:35.062Z,10.08
2022-10-07T05:19:03.140Z,10.14
2022-10-07T05:21:29.674Z,10.04
2022-10-07T05:23:56.485Z,10.09
2022-10-07T05:26:29.579Z,10.06
2022-10-07T05:28:59.101Z,10.01
2022-10-07T05:31:31.885Z,10.05
2022-10-07T05:34:01.220Z,9.94
2022-10-07T05:36:28.093Z,10.04
2022-10-07T05:38:58.055Z,10.02
2022-10-07T05:41:30.787Z,10.12
2022-10-07T05:44:01.048Z,10.15
2022-10-07T05:46:27.731Z,10.03
2022-10-07T05:48:57.244Z,9.98
2022-10-07T05:51:27.868Z,10.06
2022-10-07T05:53:56.687Z,10.07
2022-10-07T05:56:28.485Z,10.05
2022-10-07T05:58:58.778Z,9.97
2022-10-07T06:01:28.324Z,10.02
2022-10-07T06:03:57.325Z,9.98
2022-10-07T06:06:26.667Z,9.95
2022-10-07T06:09:15.628Z,10.00
2022-10-07T06:12:01.747Z,10.10
2022-10-07T06:14:28.971Z,10.16
2022-10-07T06:16:55.439Z,10.21
2022-10-07T06:19:25.127Z,10.15
2022-10-07T06:21:55.140Z,10.13
2022-10-07T06:24:21.603Z,10.12
2022-10-07T06:26:49.022Z,10.19
2022-10-07T06:29:16.184Z,10.29
2022-10-07T06:31:42.818Z,10.19
2022-10-07T06:34:09.282Z,10.23
2022-10-07T06:36:36.865Z,10.16
2022-10-07T06:39:03.939Z,10.17
2022-10-07T06:41:36.045Z,10.18
2022-10-07T06:44:18.557Z,10.21
2022-10-07T06:46:45.247Z,10.32
2022-10-07T06:49:12.036Z,10.25
2022-10-07T06:51:38.777Z,10.28
2022-10-07T06:54:05.162Z,10.40
2022-10-07T06:56:31.646Z,10.56
2022-10-07T06:58:58.167Z,10.45
2022-10-07T07:01:35.941Z,10.81
2022-10-07T07:04:02.439Z,10.74
2022-10-07T07:06:29.182Z,10.90
2022-10-07T07:08:58.389Z,11.01
2022-10-07T07:11:37.943Z,11.03
2022-10-07T07:14:15.612Z,11.02
2022-10-07T07:16:47.968Z,11.07
2022-10-07T07:19:16.054Z,11.17
2022-10-07T07:21:45.552Z,11.22
2022-10-07T07:24:16.538Z,11.37
2022-10-07T07:26:44.032Z,11.35
2022-10-07T07:29:12.243Z,11.23
2022-10-07T07:31:44.436Z,11.50
2022-10-07T07:34:13.625Z,11.50
2022-10-07T07:36:45.329Z,11.72
2022-10-07T07:39:14.363Z,11.89
2022-10-07T07:41:45.909Z,12.06
2022-10-07T07:44:14.347Z,12.00
2022-10-07T07:46:43.180Z,12.11
2022-10-07T07:49:11.929Z,12.26
2022-10-07T07:51:42.396Z,12.37
2022-10-07T07:54:12.351Z,12.42
2022-10-07T07:56:41.536Z,12.19
2022-10-07T07:59:08.585Z,12.35
2022-10-07T08:01:35.446Z,12.49
2022-10-07T08:04:04.045Z,12.60
2022-10-07T08:06:32.553Z,12.57
2022-10-07T08:09:00.791Z,12.67
2022-10-07T08:11:28.228Z,12.71
2022-10-07T08:13:56.352Z,12.85
2022-10-07T08:16:25.938Z,12.70
2022-10-07T08:18:54.237Z,12.75
2022-10-07T08:21:21.936Z,12.74
2022-10-07T08:23:57.439Z,12.78
2022-10-07T08:26:28.650Z,12.69
2022-10-07T08:28:57.795Z,12.68
2022-10-07T08:31:28.439Z,12.53
2022-10-07T08:33:57.058Z,12.77
2022-10-07T08:36:24.163Z,12.95
2022-10-07T08:38:50.769Z,12.98
2022-10-07T08:41:28.273Z,13.14
2022-10-07T08:43:57.232Z,13.03
2022-10-07T08:46:29.210Z,13.04
2022-10-07T08:49:03.713Z,12.91
2022-10-07T08:51:32.921Z,13.09
2022-10-07T08:53:59.385Z,13.30
2022-10-07T08:56:26.432Z,13.04
2022-10-07T08:59:11.625Z,13.19
2022-10-07T09:01:41.297Z,13.35
2022-10-07T09:04:20.433Z,13.41
2022-10-07T09:06:52.072Z,13.49
2022-10-07T09:09:30.365Z,13.55
2022-10-07T09:11:57.438Z,13.57
2022-10-07T09:14:40.095Z,13.59
2022-10-07T09:17:19.421Z,13.70
2022-10-07T09:19:48.427Z,13.56
2022-10-07T09:22:19.591Z,13.87
2022-10-07T09:24:47.172Z,13.94
2022-10-07T09:27:16.045Z,14.20
2022-10-07T09:29:42.833Z,14.28
2022-10-07T09:32:11.785Z,14.26
2022-10-07T09:34:38.219Z,14.43
2022-10-07T09:37:10.885Z,14.39
2022-10-07T09:39:37.358Z,14.26
2022-10-07T09:42:07.046Z,14.33
2022-10-07T09:44:33.486Z,14.57
2022-10-07T09:47:11.836Z,14.78
2022-10-07T09:49:41.017Z,14.98
2022-10-07T09:52:14.295Z,14.86
2022-10-07T09:54:41.385Z,14.95
2022-10-07T09:57:22.426Z,15.14
2022-10-07T09:59:48.820Z,15.24
2022-10-07T10:07:53.458Z,15.47
2022-10-07T10:10:24.551Z,15.63
2022-10-07T10:12:52.864Z,15.56
2022-10-07T10:15:22.412Z,15.55
2022-10-07T10:17:48.866Z,15.75
2022-10-07T10:20:25.689Z,15.84
2022-10-07T10:22:52.518Z,15.87
2022-10-07T10:25:41.782Z,16.00
2022-10-07T10:28:19.135Z,16.13
2022-10-07T10:30:52.202Z,16.08
2022-10-07T10:33:33.577Z,16.15
2022-10-07T10:36:35.624Z,16.30
2022-10-07T10:39:04.777Z,16.38
2022-10-07T10:41:33.884Z,16.47
2022-10-07T10:44:05.739Z,16.67
2022-10-07T10:46:39.340Z,16.59
2022-10-07T10:49:10.804Z,16.60
2022-10-07T10:51:50.372Z,16.53
2022-10-07T10:54:17.694Z,16.67
2022-10-07T10:56:51.643Z,16.63
2022-10-07T10:59:37.538Z,16.70
2022-10-07T11:02:17.882Z,16.67
2022-10-07T11:04:47.753Z,16.82
2022-10-07T11:07:25.411Z,16.92
2022-10-07T11:09:53.283Z,16.79
2022-10-07T11:12:31.878Z,16.70
2022-10-07T11:15:02.187Z,16.75
2022-10-07T11:17:34.099Z,16.80
2022-10-07T11:20:15.731Z,16.81
2022-10-07T11:22:44.992Z,16.85
2022-10-07T11:25:20.686Z,16.87
2022-10-07T11:27:48.948Z,16.89
2022-10-07T11:30:17.510Z,17.02
2022-10-07T11:32:49.820Z,17.08
2022-10-07T11:35:23.311Z,17.11
2022-10-07T11:38:12.956Z,17.15
2022-10-07T11:40:53.691Z,17.29
2022-10-07T11:43:30.288Z,17.33
2022-10-07T11:45:59.941Z,17.40
2022-10-07T11:48:49.870Z,17.42
2022-10-07T11:51:37.307Z,17.43
2022-10-07T11:54:06.378Z,17.50
2022-10-07T11:56:38.049Z,17.56
2022-10-07T11:59:06.496Z,17.57
2022-10-07T12:01:35.988Z,17.57
2022-10-07T12:04:21.113Z,17.63
2022-10-07T12:07:06.773Z,17.76
2022-10-07T12:09:51.734Z,17.85
2022-10-07T12:12:22.024Z,17.89
2022-10-07T12:14:58.383Z,17.79
2022-10-07T12:17:27.265Z,17.69
2022-10-07T12:20:12.428Z,17.70
2022-10-07T12:22:39.057Z,17.70
2022-10-07T12:25:29.131Z,17.70
2022-10-07T12:27:56.672Z,17.80
2022-10-07T12:30:42.379Z,17.81
2022-10-07T12:33:16.050Z,17.86
2022-10-07T12:35:48.702Z,17.97
2022-10-07T12:38:23.404Z,18.14
2022-10-07T12:41:13.052Z,18.07
2022-10-07T12:43:39.430Z,17.96
2022-10-07T12:46:13.314Z,18.05
2022-10-07T12:48:41.582Z,17.97
2022-10-07T12:51:14.568Z,17.95
2022-10-07T12:53:41.617Z,18.08
2022-10-07T12:56:08.912Z,18.06
2022-10-07T12:59:05.395Z,17.98
2022-10-07T13:01:46.718Z,18.13
2022-10-07T13:04:25.258Z,18.07
2022-10-07T13:07:10.389Z,18.15
2022-10-07T13:09:36.759Z,18.23
2022-10-07T13:12:12.809Z,18.15
2022-10-07T13:14:39.171Z,18.11
2022-10-07T13:17:28.863Z,18.09
2022-10-07T13:19:56.746Z,18.13
2022-10-07T13:22:24.261Z,18.13
2022-10-07T13:24:54.979Z,18.08
2022-10-07T13:27:26.791Z,18.13
2022-10-07T13:29:53.552Z,18.17
2022-10-07T13:32:27.956Z,18.12
2022-10-07T13:34:54.315Z,18.13
2022-10-07T13:37:29.986Z,18.05
2022-10-07T13:39:57.236Z,18.08
2022-10-07T13:42:27.501Z,18.15
2022-10-07T13:48:58.279Z,18.09
2022-10-07T13:51:28.399Z,18.10
2022-10-07T13:53:59.520Z,18.11
2022-10-07T13:56:27.728Z,18.18
2022-10-07T13:58:55.183Z,18.14
2022-10-07T14:01:27.368Z,18.10
2022-10-07T14:04:09.055Z,18.19
2022-10-07T14:06:37.736Z,18.13
2022-10-07T14:09:04.136Z,18.13
2022-10-07T14:11:30.758Z,18.10
2022-10-07T14:13:59.346Z,18.06
2022-10-07T14:16:25.999Z,18.13
2022-10-07T14:18:52.760Z,18.14
2022-10-07T14:21:19.166Z,18.14
2022-10-07T14:23:49.186Z,18.17
2022-10-07T14:26:17.574Z,18.19
2022-10-07T14:28:44.365Z,18.23
2022-10-07T14:31:35.154Z,18.22
2022-10-07T14:34:36.339Z,18.31
2022-10-07T14:37:02.704Z,18.29
2022-10-07T14:39:34.416Z,18.30
2022-10-07T14:42:01.594Z,18.31
2022-10-07T14:44:28.121Z,18.28
2022-10-07T14:47:11.211Z,18.32
2022-10-07T14:49:37.755Z,18.24
2022-10-07T14:52:06.275Z,18.27
2022-10-07T14:54:33.611Z,18.33
2022-10-07T14:57:00.009Z,18.39
2022-10-07T14:59:26.458Z,18.29
2022-10-07T15:01:52.819Z,18.37
2022-10-07T15:04:19.334Z,18.35
2022-10-07T15:06:50.624Z,18.23
2022-10-07T15:09:18.296Z,18.21
2022-10-07T15:11:44.677Z,18.46
2022-10-07T15:14:11.911Z,18.38
2022-10-07T15:16:38.791Z,18.24
2022-10-07T15:19:05.298Z,18.22
2022-10-07T15:21:31.767Z,18.16
2022-10-07T15:23:58.138Z,18.12
2022-10-07T15:26:24.825Z,18.20
2022-10-07T15:28:54.112Z,18.30
2022-10-07T15:31:21.326Z,18.17
2022-10-07T15:33:47.854Z,18.23
2022-10-07T15:36:15.123Z,18.22
2022-10-07T15:38:41.493Z,18.16
2022-10-07T15:41:07.951Z,18.09
2022-10-07T15:43:35.166Z,18.06
2022-10-07T15:46:01.752Z,18.01
2022-10-07T15:48:28.791Z,17.92
2022-10-07T15:50:56.125Z,17.91
2022-10-07T15:53:23.614Z,17.91
2022-10-07T15:55:50.797Z,17.89
2022-10-07T15:58:18.209Z,17.91
2022-10-07T16:00:55.790Z,17.89
2022-10-07T16:03:22.198Z,17.88
2022-10-07T16:05:55.952Z,17.87
2022-10-07T16:08:22.433Z,17.84
2022-10-07T16:10:48.846Z,17.84
2022-10-07T16:13:15.178Z,17.86
2022-10-07T16:15:42.412Z,17.93
2022-10-07T16:18:08.832Z,18.03
2022-10-07T16:20:40.225Z,18.09
2022-10-07T16:23:06.642Z,17.97
2022-10-07T16:25:35.039Z,17.94
2022-10-07T16:28:20.032Z,17.90
2022-10-07T16:30:51.059Z,17.91
2022-10-07T16:33:18.889Z,17.84
2022-10-07T16:35:45.339Z,17.85
2022-10-07T16:38:11.712Z,17.62
2022-10-07T16:40:38.049Z,17.57
2022-10-07T16:43:04.427Z,17.48
2022-10-07T16:45:30.852Z,17.35
2022-10-07T16:47:57.356Z,17.35
2022-10-07T16:50:23.954Z,17.44
2022-10-07T16:52:50.321Z,17.49
2022-10-07T16:55:17.573Z,17.54
2022-10-07T16:57:44.527Z,17.54
2022-10-07T17:00:11.316Z,17.52
2022-10-07T17:02:37.674Z,17.49
2022-10-07T17:05:04.198Z,17.42
2022-10-07T17:07:30.544Z,17.33
2022-10-07T17:09:56.931Z,17.15
2022-10-07T17:12:24.404Z,16.93
2022-10-07T17:14:51.476Z,16.72
2022-10-07T17:17:18.959Z,16.77
2022-10-07T17:19:46.283Z,16.65
2022-10-07T17:22:12.701Z,16.58
2022-10-07T17:24:40.002Z,16.46
2022-10-07T17:27:08.438Z,16.37
2022-10-07T17:29:35.865Z,16.24
2022-10-07T17:32:02.569Z,16.49
2022-10-07T17:34:28.939Z,16.60
2022-10-07T17:36:55.346Z,16.65
2022-10-07T17:39:21.830Z,16.62
2022-10-07T17:41:48.408Z,16.57
2022-10-07T17:44:14.919Z,16.51
2022-10-07T17:46:41.436Z,16.46
2022-10-07T17:49:12.750Z,16.44
2022-10-07T17:51:42.344Z,16.39
2022-10-07T17:54:10.814Z,16.33
2022-10-07T17:56:37.300Z,16.31
2022-10-07T17:59:05.342Z,16.30
2022-10-07T18:01:33.837Z,16.26
2022-10-07T18:04:01.570Z,16.24
2022-10-07T18:06:33.554Z,16.21
2022-10-07T18:09:02.242Z,16.18
2022-10-07T18:11:49.295Z,16.17
2022-10-07T18:14:34.537Z,16.11
2022-10-07T18:17:01.118Z,16.06
2022-10-07T18:19:27.679Z,16.05
2022-10-07T18:21:56.247Z,16.01
2022-10-07T18:24:28.054Z,15.99
2022-10-07T18:26:55.190Z,15.94
2022-10-07T18:29:21.589Z,15.94
2022-10-07T18:31:48.085Z,15.88
2022-10-07T18:34:14.494Z,15.86
2022-10-07T18:36:40.848Z,15.85
2022-10-07T18:39:08.793Z,15.83
2022-10-07T18:41:35.147Z,15.79
2022-10-07T18:44:01.534Z,15.72
2022-10-07T18:46:27.911Z,15.69
2022-10-07T18:48:54.396Z,15.66
2022-10-07T18:51:20.753Z,15.62
2022-10-07T18:53:47.307Z,15.61
2022-10-07T18:56:15.348Z,15.57
2022-10-07T18:58:43.069Z,15.50
2022-10-07T19:01:11.052Z,15.50
2022-10-07T19:03:37.538Z,15.47
2022-10-07T19:06:04.897Z,15.44
2022-10-07T19:08:31.429Z,15.41
2022-10-07T19:11:01.906Z,15.36
2022-10-07T19:13:47.154Z,15.36
2022-10-07T19:16:34.934Z,15.34
2022-10-07T19:19:05.865Z,15.33
2022-10-07T19:21:33.356Z,15.33
2022-10-07T19:24:01.596Z,15.30
2022-10-07T19:26:33.886Z,15.31
2022-10-07T19:29:01.016Z,15.30
2022-10-07T19:31:32.023Z,15.26
2022-10-07T19:34:02.705Z,15.23
2022-10-07T19:36:30.550Z,15.23
2022-10-07T19:38:58.416Z,15.22
2022-10-07T19:41:27.218Z,15.17
2022-10-07T19:43:53.600Z,15.14
2022-10-07T19:46:21.725Z,15.11
2022-10-07T19:48:48.545Z,15.05
2022-10-07T19:51:16.087Z,15.01
2022-10-07T19:53:46.807Z,14.98
2022-10-07T19:56:20.045Z,14.94
2022-10-07T19:58:47.955Z,14.90
2022-10-07T20:01:15.745Z,14.85
2022-10-07T20:03:42.538Z,14.80
2022-10-07T20:06:09.837Z,14.81
2022-10-07T20:08:37.773Z,14.78
2022-10-07T20:11:04.767Z,14.75
2022-10-07T20:13:32.660Z,14.72
2022-10-07T20:16:03.687Z,14.71
2022-10-07T20:18:30.112Z,14.66
2022-10-07T20:21:03.673Z,14.58
2022-10-07T20:23:33.844Z,14.54
2022-10-07T20:26:11.056Z,14.50
2022-10-07T20:28:37.810Z,14.50
2022-10-07T20:31:08.147Z,14.48
2022-10-07T20:33:39.167Z,14.49
2022-10-07T20:36:09.991Z,14.53
2022-10-07T20:38:55.143Z,14.56
2022-10-07T20:41:41.197Z,14.56
2022-10-07T20:44:07.696Z,14.46
2022-10-07T20:46:34.534Z,14.50
2022-10-07T20:49:00.955Z,14.52
2022-10-07T20:51:27.518Z,14.50
2022-10-07T20:53:53.971Z,14.45
2022-10-07T20:56:20.362Z,14.36
2022-10-07T20:58:46.787Z,14.21
2022-10-07T21:01:13.249Z,14.25
2022-10-07T21:03:39.778Z,14.29
2022-10-07T21:06:06.329Z,14.34
2022-10-07T21:08:32.749Z,14.33
2022-10-07T21:11:00.186Z,14.28
2022-10-07T21:13:27.340Z,14.28
2022-10-07T21:15:54.906Z,14.28
2022-10-07T21:18:21.355Z,14.23
2022-10-07T21:20:56.318Z,14.21
2022-10-07T21:23:23.758Z,14.17
2022-10-07T21:25:51.672Z,14.09
2022-10-07T21:28:18.415Z,14.14
2022-10-07T21:30:53.892Z,14.12
2022-10-07T21:33:20.366Z,14.13
2022-10-07T21:35:47.859Z,14.09
2022-10-07T21:38:14.571Z,14.07
2022-10-07T21:40:40.929Z,14.06
2022-10-07T21:43:07.317Z,13.72
2022-10-07T21:45:33.720Z,13.81
2022-10-07T21:48:00.160Z,13.89
2022-10-07T21:50:26.557Z,13.87
2022-10-07T21:52:52.946Z,13.62
2022-10-07T21:55:19.306Z,13.78
2022-10-07T21:57:45.871Z,13.50
2022-10-07T22:00:12.808Z,13.64
2022-10-07T22:02:39.420Z,13.81
2022-10-07T22:05:06.073Z,13.80
2022-10-07T22:07:51.366Z,13.77
2022-10-07T22:10:17.781Z,13.50
2022-10-07T22:12:44.678Z,13.63
2022-10-07T22:15:11.464Z,13.63
2022-10-07T22:17:37.867Z,13.77
2022-10-07T22:20:04.411Z,13.64
2022-10-07T22:22:31.981Z,13.51
2022-10-07T22:24:58.322Z,13.62
2022-10-07T22:27:25.935Z,13.73
2022-10-07T22:29:52.347Z,13.76
2022-10-07T22:32:18.747Z,13.65
2022-10-07T22:35:03.837Z,13.44
2022-10-07T22:37:30.220Z,13.51
2022-10-07T22:39:56.609Z,13.53
2022-10-07T22:42:22.966Z,13.59
2022-10-07T22:44:49.329Z,13.51
2022-10-07T22:47:16.288Z,13.63
2022-10-07T22:49:42.715Z,13.59
2022-10-07T22:52:09.073Z,13.35
2022-10-07T22:54:35.443Z,13.48
2022-10-07T22:57:02.168Z,13.41
2022-10-07T22:59:28.547Z,13.46
2022-10-07T23:01:54.984Z,13.56
2022-10-07T23:04:21.535Z,13.59
2022-10-07T23:06:48.266Z,13.54
2022-10-07T23:09:14.626Z,13.60
2022-10-07T23:11:41.034Z,13.50
2022-10-07T23:14:07.403Z,13.42
2022-10-07T23:16:34.106Z,13.40
2022-10-07T23:19:01.423Z,13.34
2022-10-07T23:21:29.510Z,13.22
2022-10-07T23:24:01.717Z,13.20
2022-10-07T23:26:30.321Z,13.16
2022-10-07T23:28:58.289Z,13.21
2022-10-07T23:31:27.195Z,13.20
2022-10-07T23:33:54.736Z,13.19
2022-10-07T23:36:21.908Z,13.17
2022-10-07T23:38:49.136Z,13.21
2022-10-07T23:41:17.177Z,13.25
2022-10-07T23:43:43.597Z,13.09
2022-10-07T23:46:14.275Z,12.91
2022-10-07T23:48:41.012Z,12.91
2022-10-07T23:51:07.376Z,13.05
2022-10-07T23:53:34.628Z,13.09
2022-10-07T23:56:01.071Z,13.07
2022-10-07T23:58:29.043Z,12.92
